createdAt,value
2023-02-03T00:00:22.679Z,1.50
2023-02-03T00:02:49.099Z,1.08
2023-02-03T00:05:15.705Z,1.70
2023-02-03T00:07:44.312Z,1.02
2023-02-03T00:10:11.020Z,1.35
2023-02-03T00:12:37.429Z,1.52
2023-02-03T00:15:04.301Z,1.65
2023-02-03T00:17:30.655Z,1.50
2023-02-03T00:19:57.071Z,1.25
2023-02-03T00:22:23.591Z,1.77
2023-02-03T00:24:52.263Z,1.25
2023-02-03T00:27:20.787Z,1.60
2023-02-03T00:29:49.722Z,1.35
2023-02-03T00:32:16.847Z,1.77
2023-02-03T00:34:43.406Z,1.58
2023-02-03T00:37:12.660Z,1.83
2023-02-03T00:39:39.434Z,1.50
2023-02-03T00:42:06.572Z,2.08
2023-02-03T00:44:33.186Z,1.98
2023-02-03T00:46:59.991Z,1.67
2023-02-03T00:49:26.736Z,2.10
2023-02-03T00:51:53.388Z,1.70
2023-02-03T00:54:19.854Z,1.33
2023-02-03T00:56:49.073Z,2.20
2023-02-03T00:59:15.578Z,1.75
2023-02-03T01:01:42.439Z,2.22
2023-02-03T01:04:08.927Z,1.92
2023-02-03T01:06:40.118Z,2.08
2023-02-03T01:09:06.769Z,2.50
2023-02-03T01:11:33.447Z,1.50
2023-02-03T01:14:01.804Z,2.00
2023-02-03T01:16:36.457Z,1.40
2023-02-03T01:19:03.946Z,1.67
2023-02-03T01:21:30.677Z,1.58
2023-02-03T01:23:59.081Z,1.67
2023-02-03T01:26:25.456Z,1.70
2023-02-03T01:28:57.611Z,1.65
2023-02-03T01:31:29.624Z,1.45
2023-02-03T01:33:56.509Z,2.28
2023-02-03T01:36:25.448Z,1.92
2023-02-03T01:38:52.143Z,1.50
2023-02-03T01:41:21.556Z,1.70
2023-02-03T01:43:54.243Z,1.63
2023-02-03T01:46:44.730Z,1.60
2023-02-03T01:49:14.588Z,1.35
2023-02-03T01:51:43.475Z,1.30
2023-02-03T01:54:18.137Z,1.10
2023-02-03T01:56:54.315Z,1.38
2023-02-03T01:59:24.423Z,1.88
2023-02-03T02:01:53.881Z,1.40
2023-02-03T02:04:22.398Z,1.25
2023-02-03T02:06:51.255Z,1.42
2023-02-03T02:09:17.823Z,1.23
2023-02-03T02:11:46.396Z,1.23
2023-02-03T02:14:13.195Z,1.20
2023-02-03T02:17:05.922Z,1.48
2023-02-03T02:19:57.177Z,1.23
2023-02-03T02:22:40.806Z,1.10
2023-02-03T02:25:24.789Z,1.13
2023-02-03T02:28:22.249Z,0.90
2023-02-03T02:31:21.056Z,0.75
2023-02-03T02:34:07.546Z,1.30
2023-02-03T02:36:53.739Z,0.90
2023-02-03T02:39:40.247Z,1.02
2023-02-03T02:42:24.942Z,1.35
2023-02-03T02:44:58.584Z,1.45
2023-02-03T02:47:25.355Z,1.35
2023-02-03T02:50:04.482Z,1.33
2023-02-03T02:52:42.314Z,1.70
2023-02-03T02:55:24.594Z,1.52
2023-02-03T02:57:55.407Z,1.52
2023-02-03T03:00:23.227Z,1.50
2023-02-03T03:02:50.065Z,1.75
2023-02-03T03:05:29.553Z,1.45
2023-02-03T03:08:02.977Z,1.65
2023-02-03T03:10:36.913Z,1.30
2023-02-03T03:13:07.709Z,1.50
2023-02-03T03:15:36.199Z,2.15
2023-02-03T03:18:29.993Z,1.48
2023-02-03T03:21:05.729Z,0.93
2023-02-03T03:23:39.584Z,1.13
2023-02-03T03:26:18.039Z,1.15
2023-02-03T03:28:52.002Z,0.88
2023-02-03T03:31:22.771Z,1.23
2023-02-03T03:33:49.751Z,1.30
2023-02-03T03:36:37.920Z,1.60
2023-02-03T03:39:19.541Z,0.90
2023-02-03T03:42:26.621Z,0.80
2023-02-03T03:45:18.092Z,1.20
2023-02-03T03:48:12.460Z,1.15
2023-02-03T03:51:15.719Z,0.90
2023-02-03T03:54:04.764Z,1.42
2023-02-03T03:56:57.831Z,1.40
2023-02-03T03:59:48.733Z,0.70
2023-02-03T04:02:41.925Z,1.48
2023-02-03T04:05:39.139Z,1.23
2023-02-03T04:08:24.859Z,1.30
2023-02-03T04:11:10.169Z,1.60
2023-02-03T04:13:57.899Z,1.48
2023-02-03T04:17:01.726Z,1.65
2023-02-03T04:19:49.112Z,1.25
2023-02-03T04:22:34.237Z,1.70
2023-02-03T04:25:22.467Z,1.92
2023-02-03T04:28:10.479Z,1.48
2023-02-03T04:30:55.641Z,1.83
2023-02-03T04:33:44.666Z,1.67
2023-02-03T04:36:35.201Z,1.52
2023-02-03T04:39:20.651Z,1.98
2023-02-03T04:41:54.535Z,2.10
2023-02-03T04:44:21.320Z,2.25
2023-02-03T04:46:53.030Z,2.42
2023-02-03T04:49:19.511Z,1.95
2023-02-03T04:51:59.469Z,2.75
2023-02-03T04:54:25.910Z,2.05
2023-02-03T04:56:52.383Z,2.45
2023-02-03T04:59:23.247Z,1.73
2023-02-03T05:01:52.497Z,2.35
2023-02-03T05:04:19.201Z,2.03
2023-02-03T05:06:46.207Z,2.08
2023-02-03T05:09:15.166Z,2.17
2023-02-03T05:11:44.021Z,1.92
2023-02-03T05:14:10.539Z,1.80
2023-02-03T05:16:39.751Z,2.13
2023-02-03T05:19:13.097Z,1.80
2023-02-03T05:21:42.480Z,1.95
2023-02-03T05:24:26.807Z,3.10
2023-02-03T05:26:53.661Z,2.28
2023-02-03T05:29:20.209Z,2.17
2023-02-03T05:31:54.122Z,2.00
2023-02-03T05:34:20.595Z,1.92
2023-02-03T05:36:59.614Z,1.80
2023-02-03T05:39:28.639Z,3.10
2023-02-03T05:41:57.962Z,1.98
2023-02-03T05:44:28.769Z,1.63
2023-02-03T05:46:57.994Z,2.70
2023-02-03T05:49:24.905Z,1.80
2023-02-03T05:51:57.739Z,2.22
2023-02-03T05:54:26.833Z,1.77
2023-02-03T05:57:13.665Z,2.10
2023-02-03T05:59:42.847Z,1.92
2023-02-03T06:02:15.257Z,2.08
2023-02-03T06:07:24.338Z,2.20
2023-02-03T06:10:16.991Z,1.88
2023-02-03T06:12:44.273Z,1.85
2023-02-03T06:15:14.416Z,2.50
2023-02-03T06:17:54.809Z,2.30
2023-02-03T06:20:33.092Z,2.47
2023-02-03T06:23:08.033Z,1.80
2023-02-03T06:25:54.366Z,2.28
2023-02-03T06:28:28.922Z,3.20
2023-02-03T06:31:11.231Z,4.53
2023-02-03T06:33:38.125Z,2.70
2023-02-03T06:36:09.983Z,1.73
2023-02-03T06:38:39.593Z,2.33
2023-02-03T06:41:11.608Z,1.88
2023-02-03T06:43:37.968Z,2.08
2023-02-03T06:46:04.650Z,2.13
2023-02-03T06:48:35.811Z,2.50
2023-02-03T06:51:02.318Z,2.00
2023-02-03T06:53:28.728Z,1.75
2023-02-03T06:55:55.167Z,1.83
2023-02-03T06:58:24.115Z,2.17
2023-02-03T07:00:51.325Z,1.88
2023-02-03T07:03:17.779Z,1.70
2023-02-03T07:05:44.237Z,2.35
2023-02-03T07:08:10.670Z,1.50
2023-02-03T07:10:37.435Z,2.67
2023-02-03T07:13:07.120Z,2.10
2023-02-03T07:15:38.681Z,2.20
2023-02-03T07:18:07.597Z,2.00
2023-02-03T07:20:34.132Z,2.30
2023-02-03T07:23:00.561Z,1.92
2023-02-03T07:25:27.253Z,1.63
2023-02-03T07:27:54.074Z,2.53
2023-02-03T07:30:23.847Z,2.33
2023-02-03T07:32:51.563Z,2.17
2023-02-03T07:35:18.794Z,2.08
2023-02-03T07:37:47.999Z,2.28
2023-02-03T07:40:17.363Z,2.33
2023-02-03T07:42:49.221Z,1.30
2023-02-03T07:45:17.735Z,2.08
2023-02-03T07:47:44.693Z,2.78
2023-02-03T07:50:14.398Z,1.70
2023-02-03T07:52:40.916Z,1.85
2023-02-03T07:55:08.263Z,1.60
2023-02-03T07:57:34.873Z,1.52
2023-02-03T08:00:04.575Z,1.60
2023-02-03T08:02:30.929Z,1.45
2023-02-03T08:04:58.114Z,1.30
2023-02-03T08:07:27.171Z,1.60
2023-02-03T08:09:53.592Z,1.55
2023-02-03T08:12:20.118Z,1.58
2023-02-03T08:14:46.691Z,1.52
2023-02-03T08:17:13.082Z,2.38
2023-02-03T08:19:39.565Z,2.20
2023-02-03T08:22:05.934Z,1.88
2023-02-03T08:24:32.321Z,1.42
2023-02-03T08:26:59.843Z,1.95
2023-02-03T08:29:26.334Z,1.20
2023-02-03T08:31:58.604Z,1.77
2023-02-03T08:34:27.497Z,1.23
2023-02-03T08:36:53.946Z,2.85
2023-02-03T08:39:20.367Z,1.85
2023-02-03T08:41:49.998Z,2.17
2023-02-03T08:44:18.549Z,4.30
2023-02-03T08:46:45.440Z,1.63
2023-02-03T08:49:11.879Z,1.33
2023-02-03T08:51:38.256Z,1.30
2023-02-03T08:54:07.216Z,1.30
2023-02-03T08:56:36.522Z,1.23
2023-02-03T08:59:02.979Z,1.17
2023-02-03T09:01:34.067Z,1.10
2023-02-03T09:04:02.059Z,1.13
2023-02-03T09:06:31.130Z,1.50
2023-02-03T09:08:59.664Z,1.27
2023-02-03T09:11:26.097Z,1.30
2023-02-03T09:13:52.584Z,1.42
2023-02-03T09:16:21.376Z,1.95
2023-02-03T09:18:48.015Z,1.25
2023-02-03T09:21:32.945Z,2.80
2023-02-03T09:24:04.241Z,1.38
2023-02-03T09:26:33.296Z,1.60
2023-02-03T09:28:59.760Z,2.10
2023-02-03T09:31:26.327Z,1.42
2023-02-03T09:33:52.824Z,2.03
2023-02-03T09:36:22.456Z,1.95
2023-02-03T09:38:49.143Z,0.95
2023-02-03T09:41:31.253Z,1.20
2023-02-03T09:44:18.610Z,1.15
2023-02-03T09:46:54.946Z,1.38
2023-02-03T09:49:26.936Z,1.00
2023-02-03T09:51:59.906Z,1.60
2023-02-03T09:55:28.180Z,1.40
2023-02-03T09:57:58.724Z,1.10
2023-02-03T10:00:31.326Z,1.40
2023-02-03T10:03:06.351Z,1.75
2023-02-03T10:05:32.795Z,2.80
2023-02-03T10:08:41.461Z,4.47
2023-02-03T10:11:26.605Z,7.43
2023-02-03T10:14:32.077Z,2.13
2023-02-03T10:17:35.702Z,1.35
2023-02-03T10:20:21.535Z,1.55
2023-02-03T10:22:59.788Z,1.35
2023-02-03T10:25:36.513Z,1.08
2023-02-03T10:28:09.603Z,0.95
2023-02-03T10:30:51.247Z,1.35
2023-02-03T10:33:19.226Z,1.57
2023-02-03T10:35:54.179Z,1.50
2023-02-03T10:38:32.946Z,1.38
2023-02-03T10:40:59.459Z,1.13
2023-02-03T10:43:47.550Z,0.90
2023-02-03T10:46:39.240Z,0.75
2023-02-03T10:49:05.711Z,1.00
2023-02-03T10:52:04.882Z,1.13
2023-02-03T10:54:36.292Z,1.10
2023-02-03T10:57:05.849Z,1.40
2023-02-03T10:59:41.737Z,0.73
2023-02-03T11:02:26.908Z,0.90
2023-02-03T11:05:25.115Z,1.73
2023-02-03T11:07:52.416Z,1.50
2023-02-03T11:10:36.195Z,3.17
2023-02-03T11:13:25.779Z,2.92
2023-02-03T11:16:05.007Z,2.67
2023-02-03T11:18:38.585Z,1.52
2023-02-03T11:21:41.978Z,1.30
2023-02-03T11:24:20.239Z,1.00
2023-02-03T11:26:58.921Z,0.70
2023-02-03T11:29:31.985Z,1.00
2023-02-03T11:32:01.928Z,0.90
2023-02-03T11:34:32.431Z,1.80
2023-02-03T11:37:27.060Z,1.02
2023-02-03T11:40:10.916Z,1.08
2023-02-03T11:42:41.555Z,1.10
2023-02-03T11:45:34.790Z,1.15
2023-02-03T11:48:12.311Z,1.02
2023-02-03T11:50:50.920Z,0.55
2023-02-03T11:53:31.942Z,1.00
2023-02-03T11:56:00.383Z,0.80
2023-02-03T11:58:34.691Z,2.92
2023-02-03T12:01:10.582Z,1.05
2023-02-03T12:04:03.991Z,1.48
2023-02-03T12:06:44.726Z,1.83
2023-02-03T12:09:32.457Z,2.85
2023-02-03T12:12:12.764Z,2.88
2023-02-03T12:15:28.581Z,2.08
2023-02-03T12:18:14.063Z,0.38
2023-02-03T12:20:50.600Z,0.40
2023-02-03T12:23:51.882Z,0.50
2023-02-03T12:26:23.026Z,0.38
2023-02-03T12:29:08.225Z,0.30
2023-02-03T12:31:53.519Z,0.30
2023-02-03T12:34:35.475Z,0.55
2023-02-03T12:37:19.944Z,0.32
2023-02-03T12:39:54.558Z,0.40
2023-02-03T12:42:42.363Z,0.38
2023-02-03T12:45:08.848Z,0.45
2023-02-03T12:47:43.373Z,0.43
2023-02-03T12:50:42.226Z,0.30
2023-02-03T12:53:17.344Z,0.50
2023-02-03T12:55:55.090Z,0.28
2023-02-03T12:58:28.567Z,0.40
2023-02-03T13:01:04.910Z,0.55
2023-02-03T13:03:45.884Z,0.40
2023-02-03T13:06:22.578Z,2.35
2023-02-03T13:08:56.068Z,1.45
2023-02-03T13:11:48.405Z,0.60
2023-02-03T13:14:34.291Z,0.68
2023-02-03T13:17:15.495Z,1.58
2023-02-03T13:20:04.552Z,1.15
2023-02-03T13:22:32.076Z,1.02
2023-02-03T13:25:32.433Z,1.20
2023-02-03T13:28:24.853Z,1.05
2023-02-03T13:31:15.547Z,1.15
2023-02-03T13:33:42.054Z,1.85
2023-02-03T13:36:27.394Z,2.10
2023-02-03T13:39:15.145Z,2.22
2023-02-03T13:41:50.225Z,1.38
2023-02-03T13:44:23.766Z,1.80
2023-02-03T13:46:52.261Z,1.05
2023-02-03T13:49:25.398Z,0.82
2023-02-03T13:51:52.169Z,1.30
2023-02-03T13:54:25.429Z,1.10
2023-02-03T13:57:03.613Z,1.48
2023-02-03T13:59:50.526Z,1.30
2023-02-03T14:02:20.041Z,0.50
2023-02-03T14:04:46.648Z,1.20
2023-02-03T14:07:34.650Z,1.30
2023-02-03T14:10:13.618Z,1.10
2023-02-03T14:12:51.924Z,0.50
2023-02-03T14:15:33.529Z,0.50
2023-02-03T14:18:05.863Z,0.60
2023-02-03T14:23:06.602Z,0.40
2023-02-03T14:25:40.410Z,0.60
2023-02-03T14:28:20.045Z,0.82
2023-02-03T14:31:12.811Z,0.55
2023-02-03T14:33:48.236Z,0.52
2023-02-03T14:36:54.704Z,0.45
2023-02-03T14:39:23.509Z,0.20
2023-02-03T14:42:09.244Z,0.40
2023-02-03T14:45:12.825Z,0.47
2023-02-03T14:48:35.805Z,0.60
2023-02-03T14:51:30.655Z,0.98
2023-02-03T14:53:59.995Z,0.60
2023-02-03T14:57:12.884Z,0.68
2023-02-03T14:59:48.726Z,0.90
2023-02-03T15:02:25.961Z,1.95
2023-02-03T15:05:14.448Z,1.45
2023-02-03T15:07:48.540Z,1.20
2023-02-03T15:10:17.900Z,1.33
2023-02-03T15:12:47.283Z,1.13
2023-02-03T15:15:21.982Z,0.98
2023-02-03T15:17:53.001Z,0.60
2023-02-03T15:20:31.482Z,0.80
2023-02-03T15:22:57.949Z,0.90
2023-02-03T15:25:27.247Z,0.45
2023-02-03T15:28:10.812Z,0.40
2023-02-03T15:30:38.298Z,0.60
2023-02-03T15:33:14.128Z,0.50
2023-02-03T15:35:43.245Z,0.30
2023-02-03T15:38:20.909Z,0.70
2023-02-03T15:40:53.253Z,0.88
2023-02-03T15:46:07.500Z,0.50
2023-02-03T15:48:50.344Z,0.40
2023-02-03T15:51:22.821Z,0.20
2023-02-03T15:54:24.320Z,0.50
2023-02-03T15:57:10.729Z,0.50
2023-02-03T15:59:47.601Z,0.50
2023-02-03T16:02:17.505Z,0.45
2023-02-03T16:04:45.086Z,0.70
2023-02-03T16:07:22.806Z,0.40
2023-02-03T16:09:53.865Z,0.40
2023-02-03T16:12:32.089Z,0.45
2023-02-03T16:15:00.661Z,0.38
2023-02-03T16:17:36.634Z,0.45
2023-02-03T16:20:12.288Z,0.43
2023-02-03T16:22:59.814Z,0.50
2023-02-03T16:25:32.351Z,0.43
2023-02-03T16:28:35.491Z,0.60
2023-02-03T16:31:30.131Z,0.60
2023-02-03T16:34:15.075Z,0.73
2023-02-03T16:37:03.318Z,0.90
2023-02-03T16:39:48.542Z,1.30
2023-02-03T16:42:42.248Z,0.90
2023-02-03T16:45:37.522Z,1.15
2023-02-03T16:48:22.953Z,1.50
2023-02-03T16:51:07.518Z,1.10
2023-02-03T16:53:33.973Z,1.95
2023-02-03T16:56:02.106Z,2.58
2023-02-03T16:58:28.702Z,2.45
2023-02-03T17:00:55.315Z,2.67
2023-02-03T17:03:24.178Z,2.22
2023-02-03T17:05:51.635Z,1.58
2023-02-03T17:08:21.227Z,1.20
2023-02-03T17:10:48.531Z,0.80
2023-02-03T17:13:16.862Z,1.60
2023-02-03T17:15:47.631Z,0.93
2023-02-03T17:18:15.377Z,2.47
2023-02-03T17:20:42.875Z,1.73
2023-02-03T17:23:15.940Z,0.80
2023-02-03T17:25:45.658Z,0.93
2023-02-03T17:28:13.599Z,1.05
2023-02-03T17:30:40.591Z,0.90
2023-02-03T17:33:14.612Z,0.70
2023-02-03T17:35:42.921Z,0.68
2023-02-03T17:38:10.517Z,1.13
2023-02-03T17:54:29.682Z,1.00
2023-02-03T17:56:56.122Z,1.20
2023-02-03T17:59:22.656Z,1.85
2023-02-03T18:01:49.265Z,1.17
2023-02-03T18:04:15.728Z,0.90
2023-02-03T18:06:46.315Z,0.93
2023-02-03T18:09:16.785Z,1.10
2023-02-03T18:11:44.799Z,1.25
2023-02-03T18:14:12.850Z,1.58
2023-02-03T18:16:39.749Z,1.30
2023-02-03T18:19:08.422Z,1.65
2023-02-03T18:21:41.629Z,1.40
2023-02-03T18:24:09.704Z,1.17
2023-02-03T18:26:48.187Z,1.10
2023-02-03T18:29:18.014Z,4.30
2023-02-03T18:31:44.576Z,2.13
2023-02-03T18:34:13.579Z,1.80
2023-02-03T18:39:08.182Z,3.95
2023-02-03T18:41:36.369Z,3.20
2023-02-03T18:44:02.778Z,3.95
2023-02-03T18:46:31.274Z,2.53
2023-02-03T18:49:00.484Z,1.80
2023-02-03T18:51:29.775Z,1.83
2023-02-03T18:53:59.722Z,2.47
2023-02-03T18:56:35.091Z,3.08
2023-02-03T18:59:06.618Z,2.83
2023-02-03T19:01:33.718Z,4.07
2023-02-03T19:04:03.248Z,3.90
2023-02-03T19:06:31.719Z,3.10
2023-02-03T19:09:05.565Z,1.95
2023-02-03T19:11:33.678Z,4.50
2023-02-03T19:14:00.094Z,4.55
2023-02-03T19:16:26.685Z,1.85
2023-02-03T19:18:53.620Z,1.50
2023-02-03T19:21:19.980Z,1.30
2023-02-03T19:23:46.384Z,1.20
2023-02-03T19:26:13.202Z,1.50
2023-02-03T19:28:40.678Z,2.58
2023-02-03T19:31:16.238Z,1.05
2023-02-03T19:33:43.337Z,1.42
2023-02-03T19:36:10.762Z,1.65
2023-02-03T19:38:37.540Z,2.33
2023-02-03T19:41:04.549Z,2.20
2023-02-03T19:43:31.463Z,2.15
2023-02-03T19:46:02.794Z,2.63
2023-02-03T19:48:29.223Z,2.03
2023-02-03T19:50:55.670Z,2.58
2023-02-03T19:53:24.564Z,3.40
2023-02-03T19:55:51.447Z,3.13
2023-02-03T19:58:18.317Z,1.67
2023-02-03T20:00:44.857Z,1.52
2023-02-03T20:03:11.258Z,3.28
2023-02-03T20:05:38.277Z,4.22
2023-02-03T20:08:05.671Z,3.45
2023-02-03T20:10:32.943Z,2.28
2023-02-03T20:13:02.028Z,1.75
2023-02-03T20:15:28.596Z,1.73
2023-02-03T20:17:55.242Z,1.73
2023-02-03T20:20:22.757Z,2.10
2023-02-03T20:22:49.566Z,2.47
2023-02-03T20:25:16.651Z,2.53
2023-02-03T20:27:43.125Z,1.85
2023-02-03T20:30:10.216Z,1.90
2023-02-03T20:32:37.181Z,1.92
2023-02-03T20:35:04.910Z,1.67
2023-02-03T20:37:31.844Z,2.40
2023-02-03T20:39:58.284Z,2.15
2023-02-03T20:42:24.741Z,2.67
2023-02-03T20:44:51.228Z,4.30
2023-02-03T20:47:22.619Z,3.50
2023-02-03T20:49:52.268Z,1.73
2023-02-03T20:52:21.348Z,2.20
2023-02-03T20:54:47.955Z,2.20
2023-02-03T20:57:19.475Z,1.77
2023-02-03T20:59:46.798Z,2.23
2023-02-03T21:02:31.126Z,1.80
2023-02-03T21:04:58.354Z,1.90
2023-02-03T21:07:29.181Z,3.45
2023-02-03T21:10:00.112Z,2.22
2023-02-03T21:12:29.536Z,1.67
2023-02-03T21:14:56.253Z,1.63
2023-02-03T21:17:25.880Z,1.92
2023-02-03T21:19:53.608Z,2.63
2023-02-03T21:22:23.657Z,2.25
2023-02-03T21:24:53.214Z,2.30
2023-02-03T21:27:30.080Z,2.20
2023-02-03T21:29:58.181Z,2.70
2023-02-03T21:32:29.819Z,2.10
2023-02-03T21:34:56.225Z,2.38
2023-02-03T21:37:22.698Z,2.90
2023-02-03T21:39:52.382Z,2.45
2023-02-03T21:42:42.563Z,1.58
2023-02-03T21:45:14.751Z,2.42
2023-02-03T21:47:42.045Z,2.53
2023-02-03T21:50:27.289Z,1.77
2023-02-03T21:52:54.210Z,2.10
2023-02-03T21:55:20.659Z,2.50
2023-02-03T21:57:50.715Z,2.42
2023-02-03T22:00:47.793Z,2.58
2023-02-03T22:03:19.548Z,2.00
2023-02-03T22:05:47.371Z,1.85
2023-02-03T22:08:23.554Z,1.52
2023-02-03T22:10:52.593Z,1.83
2023-02-03T22:13:21.362Z,2.25
2023-02-03T22:15:50.258Z,1.83
2023-02-03T22:18:16.685Z,2.15
2023-02-03T22:20:47.717Z,1.83
2023-02-03T22:23:14.150Z,2.15
2023-02-03T22:25:43.652Z,2.20
2023-02-03T22:28:10.186Z,2.10
2023-02-03T22:30:39.398Z,2.80
2023-02-03T22:33:06.531Z,2.58
2023-02-03T22:35:34.800Z,2.88
2023-02-03T22:38:01.349Z,2.03
2023-02-03T22:40:30.826Z,2.08
2023-02-03T22:42:57.470Z,1.90
2023-02-03T22:45:26.920Z,2.00
2023-02-03T22:47:54.031Z,1.98
2023-02-03T22:50:27.436Z,1.48
2023-02-03T22:53:07.469Z,1.60
2023-02-03T22:55:34.114Z,1.98
2023-02-03T22:58:12.837Z,2.38
2023-02-03T23:00:45.327Z,2.45
2023-02-03T23:03:14.578Z,1.60
2023-02-03T23:05:41.025Z,2.20
2023-02-03T23:08:15.527Z,1.58
2023-02-03T23:10:45.346Z,1.20
2023-02-03T23:13:14.458Z,1.35
2023-02-03T23:15:41.175Z,1.48
2023-02-03T23:18:07.615Z,1.35
2023-02-03T23:20:34.346Z,1.25
2023-02-03T23:23:00.791Z,1.20
2023-02-03T23:25:27.329Z,1.38
2023-02-03T23:27:53.806Z,0.77
2023-02-03T23:30:20.194Z,1.15
2023-02-03T23:32:46.594Z,1.40
2023-02-03T23:35:31.940Z,1.10
2023-02-03T23:37:58.431Z,1.30
2023-02-03T23:40:27.162Z,1.02
2023-02-03T23:42:53.585Z,0.82
2023-02-03T23:45:24.873Z,1.10
2023-02-03T23:47:51.220Z,1.10
2023-02-03T23:50:20.564Z,1.00
2023-02-03T23:52:47.760Z,0.90
2023-02-03T23:55:17.947Z,0.82
2023-02-03T23:57:45.137Z,1.27
